»·PEaware :: SWA2388 KSFO-KBUR

SWA2388 :: KSFO-KBUR

FLIGHT INFORMATION

Flight Status: Arrived
Operator:
Southwest Airlines
More flights by this operator :: More flights under this callsign
Pilot: Patricio R. (14780)
Aircraft: BOEING 737-200
(B732)
More flights by this aircraft type
Origin: KSFO San Francisco Intl
United States
Destination: KBUR Bob Hope-Burbank
United States
More flights between these airports :: More routes between these airports
Route: OFFSH1 FLW FERN7
File this flight plan on PilotEdge
Remarks: PBN / A1B2 DOF / 180815 REG / N275SB EET / KZLA0028 OPR / SWA RMK / TCAS SIMBRIEF
Altitude:
(Current/Filed)
29,000ft
Speed:
(Current/Filed)
449kts
Departed: 15-Aug-18 02:55 PM
Arrived: 15-Aug-18 03:59 PM
Distance/Time
Traveled:
283nm/1:04
Distance/Time
To Go:
Arrived

Flight Plot

Page will automatically refresh every two minutes.

Flight plan parsing failed; only flown route is shown


Map Options




Map Legend


Flown Route
Filed Route
Departure Airport
Arrival Airport
Navaid (VOR, NDB)
Fix

Horizontal Profiles

Position Reports

Time Latitude Longitude Heading Altitude Ground
Speed
15-Aug-18 14:42 37.612674 -122.384664 6 22ft 0kts
15-Aug-18 14:43 37.612674 -122.384664 6 22ft 0kts
15-Aug-18 14:44 37.612674 -122.384664 6 22ft 0kts
15-Aug-18 14:45 37.612674 -122.384664 6 22ft 0kts
15-Aug-18 14:46 37.612674 -122.384664 6 22ft 0kts
15-Aug-18 14:47 37.612674 -122.384664 6 22ft 0kts
15-Aug-18 14:48 37.612674 -122.384664 6 22ft 0kts
15-Aug-18 14:49 37.612674 -122.384664 6 22ft 0kts
15-Aug-18 14:50 37.612593 -122.384674 6 22ft 2kts
15-Aug-18 14:51 37.611997 -122.384756 6 22ft 2kts
15-Aug-18 14:52 37.611401 -122.384841 19 22ft 2kts
15-Aug-18 14:53 37.611267 -122.385048 75 22ft 0kts
15-Aug-18 14:54 37.611386 -122.384282 98 22ft 11kts
15-Aug-18 14:55 37.608435 -122.383809 117 22ft 12kts
15-Aug-18 14:56 37.614496 -122.378582 27 22ft 120kts
15-Aug-18 14:57 37.659660 -122.361379 345 1841ft 186kts
15-Aug-18 14:58 37.703702 -122.396058 265 3838ft 210kts
15-Aug-18 14:59 37.665070 -122.448039 217 6343ft 218kts
15-Aug-18 15:00 37.612737 -122.498997 217 8089ft 259kts
15-Aug-18 15:01 37.554010 -122.557727 217 10031ft 285kts
15-Aug-18 15:02 37.489038 -122.622919 217 12408ft 286kts
15-Aug-18 15:03 37.423463 -122.682208 192 14199ft 297kts
15-Aug-18 15:04 37.343375 -122.669486 169 15876ft 306kts
15-Aug-18 15:05 37.259222 -122.648293 169 17457ft 314kts
15-Aug-18 15:06 37.172748 -122.625776 169 18842ft 323kts
15-Aug-18 15:07 37.084012 -122.602493 169 20155ft 330kts
15-Aug-18 15:08 36.993619 -122.578774 169 21348ft 336kts
15-Aug-18 15:09 36.901350 -122.554863 169 22435ft 343kts
15-Aug-18 15:10 36.807470 -122.530688 169 23439ft 349kts
15-Aug-18 15:11 36.712171 -122.505629 170 24391ft 353kts
15-Aug-18 15:12 36.615418 -122.480805 170 25268ft 357kts
15-Aug-18 15:13 36.517964 -122.455231 170 26062ft 361kts
15-Aug-18 15:14 36.422439 -122.417349 139 26722ft 377kts
15-Aug-18 15:15 36.360644 -122.310780 128 27337ft 387kts
15-Aug-18 15:16 36.300058 -122.199637 128 27906ft 391kts
15-Aug-18 15:17 36.239357 -122.087059 128 28405ft 395kts
15-Aug-18 15:18 36.178258 -121.973653 127 28864ft 399kts
15-Aug-18 15:19 36.106963 -121.870248 142 29051ft 396kts
15-Aug-18 15:21 35.947132 -121.694424 142 29054ft 396kts
15-Aug-18 15:22 35.863000 -121.607890 151 29067ft 394kts
15-Aug-18 15:23 35.782076 -121.514862 134 28954ft 409kts
15-Aug-18 15:24 35.707826 -121.408465 134 28950ft 412kts
15-Aug-18 15:25 35.635620 -121.304212 134 28944ft 414kts
15-Aug-18 15:26 35.560524 -121.196661 134 28945ft 415kts
15-Aug-18 15:27 35.485215 -121.089366 134 28945ft 416kts
15-Aug-18 15:28 35.422342 -120.999949 134 28991ft 416kts
15-Aug-18 15:29 35.334059 -120.874807 134 28991ft 417kts
15-Aug-18 15:30 35.259401 -120.766458 122 28972ft 423kts
15-Aug-18 15:31 35.229887 -120.651713 105 28994ft 429kts
15-Aug-18 15:32 35.204064 -120.508985 103 28993ft 431kts
15-Aug-18 15:33 35.179573 -120.365192 103 28993ft 432kts
15-Aug-18 15:34 35.156581 -120.231949 103 28636ft 405kts
15-Aug-18 15:35 35.133815 -120.099296 103 26837ft 392kts
15-Aug-18 15:36 35.111763 -119.971138 103 25136ft 379kts
15-Aug-18 15:37 35.060976 -119.866187 136 24023ft 374kts
15-Aug-18 15:38 34.989312 -119.771201 133 23953ft 372kts
15-Aug-18 15:39 34.923940 -119.679279 132 22506ft 354kts
15-Aug-18 15:40 34.866308 -119.598267 132 21055ft 342kts
15-Aug-18 15:41 34.805277 -119.512133 131 19459ft 332kts
15-Aug-18 15:42 34.746389 -119.428737 130 17857ft 323kts
15-Aug-18 15:43 34.688967 -119.347688 131 16266ft 315kts
15-Aug-18 15:44 34.635694 -119.272541 131 14831ft 307kts
15-Aug-18 15:45 34.580444 -119.194760 131 13212ft 303kts
15-Aug-18 15:46 34.525953 -119.118145 131 11704ft 297kts
15-Aug-18 15:47 34.472894 -119.043698 131 11009ft 284kts
15-Aug-18 15:48 34.423542 -118.974589 131 10549ft 268kts
15-Aug-18 15:49 34.375019 -118.906756 131 9257ft 264kts
15-Aug-18 15:50 34.353173 -118.825291 96 8230ft 252kts
15-Aug-18 15:51 34.347278 -118.747311 96 7227ft 227kts
15-Aug-18 15:52 34.341737 -118.672665 97 5864ft 221kts
15-Aug-18 15:53 34.336376 -118.600532 97 4982ft 208kts
15-Aug-18 15:54 34.331466 -118.534642 97 4699ft 189kts
15-Aug-18 15:55 34.326726 -118.471673 97 3802ft 186kts
15-Aug-18 15:56 34.321222 -118.413175 115 3015ft 155kts
15-Aug-18 15:57 34.288793 -118.381647 167 3002ft 155kts
15-Aug-18 15:58 34.248541 -118.370362 165 1835ft 144kts
15-Aug-18 15:59 34.209957 -118.359822 162 808ft 138kts
15-Aug-18 16:00 34.195012 -118.355183 345 785ft 12kts
15-Aug-18 16:01 34.197194 -118.353318 91 785ft 14kts
15-Aug-18 16:02 34.196828 -118.351971 181 785ft 0kts

Navigation Log

Ident Type
Flight plan parsing failed, navigation log unavailable